Terminal Aerodrome Forecast
Issued by NWS Twin Cities, MN

Home | Current Version | Previous Version | Text Only | Print | Product List | Glossary On
Versions: 1 2 3 4 5 6 7 8 9 10 11 12 13 14 15 16
000
FTUS43 KMPX 242100 AAA
TAFEAU
TAF AMD
KEAU 242123Z 2421/2518 13004KT 4SM -RA BR OVC007
      TEMPO 2422/2424 2SM -DZ BR OVC005
     FM250000 10005KT 6SM BR BKN010 OVC025
     FM250300 26004KT P6SM SCT007 BKN012
     FM250700 24003KT 2SM BR BKN007 OVC012
     FM251300 27004KT 5SM BR BKN012=

USA.gov is the U.S. government's official web portal to all federal, state and local government web resources and services.